Time;durP1;ratioP1;P1;durP2;ratioP2;P2;SDS_P1;SDS_P2;PMS_P1;PMS_P2;Temp;Humidity;BMP_temperature;BMP_pressure;BME280_temperature;BME280_humidity;BME280_pressure;Samples;Min_cycle;Max_cycle;Signal;HPM_P1;HPM_P2
2023/09/16 00:01:13;;;;;;;34.67;32.78;;;;;;;-141.02;100.00;92975.47;5132680;27;20195;-57
2023/09/16 00:04:00;;;;;;;34.03;32.13;;;;;;;-141.02;100.00;93723.63;5132905;27;20199;-56
2023/09/16 00:06:27;;;;;;;33.15;31.35;;;;;;;-141.02;100.00;93723.63;5132553;27;20413;-56
2023/09/16 00:08:53;;;;;;;31.80;30.10;;;;;;;-141.02;100.00;92975.47;5132593;27;20199;-56
2023/09/16 00:11:21;;;;;;;31.73;30.02;;;;;;;-141.02;100.00;91479.63;5132516;27;20200;-56
2023/09/16 00:13:48;;;;;;;29.63;28.02;;;;;;;-141.02;100.00;90233.56;5132816;27;20202;-56
2023/09/16 00:16:15;;;;;;;30.67;29.08;;;;;;;-141.02;100.00;89486.16;5132779;27;20199;-56
2023/09/16 00:18:44;;;;;;;27.08;25.67;;;;;;;-141.02;100.00;89735.28;5132794;27;20196;-56
2023/09/16 00:21:11;;;;;;;26.17;24.88;;;;;;;-141.02;100.00;89984.41;5132445;27;20573;-56
2023/09/16 00:23:38;;;;;;;29.63;28.13;;;;;;;-141.02;100.00;90233.56;5132696;27;20253;-56
2023/09/16 00:26:07;;;;;;;26.00;24.70;;;;;;;-141.02;100.00;89735.28;5132671;27;20259;-56
2023/09/16 00:28:36;;;;;;;27.65;26.25;;;;;;;-141.02;100.00;89735.28;5132320;27;20197;-56
2023/09/16 00:31:06;;;;;;;25.63;24.42;;;;;;;-141.02;100.00;90981.13;5132399;27;20235;-56
2023/09/16 00:33:33;;;;;;;26.38;25.08;;;;;;;-141.02;100.00;91978.16;5132640;27;20281;-55
2023/09/16 00:36:02;;;;;;;26.83;25.52;;;;;;;-141.02;100.00;93474.22;5136161;27;20203;-56
2023/09/16 00:38:29;;;;;;;24.45;23.35;;;;;;;-141.02;100.00;94222.50;5136090;27;20207;-56
2023/09/16 00:40:56;;;;;;;26.50;25.20;;;;;;;-141.02;100.00;94471.97;5136326;27;20188;-56
2023/09/16 00:43:23;;;;;;;26.38;25.08;;;;;;;-141.02;100.00;95719.53;5136398;27;20197;-69
2023/09/16 00:45:50;;;;;;;24.10;23.00;;;;;;;-141.02;100.00;96218.69;5136413;27;20276;-56
2023/09/16 00:48:18;;;;;;;27.15;25.85;;;;;;;-141.02;100.00;96967.56;5136213;27;20192;-56
2023/09/16 00:50:46;;;;;;;26.70;25.45;;;;;;;-141.02;100.00;98216.03;5136122;27;20551;-60
2023/09/16 00:53:16;;;;;;;25.95;24.75;;;;;;;-141.02;100.00;99714.81;5135821;27;20253;-56
2023/09/16 00:55:46;;;;;;;25.85;24.65;;;;;;;-141.02;100.00;100464.44;5136116;27;20219;-56
2023/09/16 00:58:17;;;;;;;26.85;25.65;;;;;;;-141.02;100.00;101964.16;5136046;27;20185;-56
2023/09/16 01:00:45;;;;;;;26.15;24.95;;;;;;;-141.02;100.00;102714.25;5135739;27;20192;-56
2023/09/16 01:03:16;;;;;;;25.02;23.92;;;;;;;-141.02;100.00;103464.53;5135548;27;20197;-56
2023/09/16 01:05:46;;;;;;;24.92;23.83;;;;;;;-141.02;100.00;103714.66;5135540;27;20232;-56
2023/09/16 01:08:16;;;;;;;23.30;22.30;;;;;;;-141.02;100.00;103714.66;5135492;27;20665;-56
2023/09/16 01:10:43;;;;;;;22.90;21.90;;;;;;;-141.02;100.00;103464.53;5135798;27;20546;-56
2023/09/16 01:13:11;;;;;;;24.05;23.05;;;;;;;-141.02;100.00;103464.53;5135384;27;20189;-56
2023/09/16 01:15:47;;;;;;;24.60;23.50;;;;;;;-141.02;100.00;103464.53;5135905;27;20192;-56
2023/09/16 01:18:22;;;;;;;21.55;20.65;;;;;;;-141.02;100.00;103214.44;5135655;27;20196;-55
2023/09/16 01:20:49;;;;;;;23.83;22.83;;;;;;;-141.02;100.00;103464.53;5135388;27;20202;-56
2023/09/16 01:23:19;;;;;;;24.98;23.88;;;;;;;-141.02;100.00;103464.53;5135295;27;20674;-56
2023/09/16 01:25:47;;;;;;;26.05;24.95;;;;;;;-141.02;100.00;103464.53;5135494;27;20224;-55
2023/09/16 01:28:15;;;;;;;26.40;25.30;;;;;;;-141.02;100.00;103964.81;5135187;27;20196;-61
2023/09/16 01:30:47;;;;;;;27.00;25.80;;;;;;;-141.02;100.00;104465.16;5135077;27;20688;-56
2023/09/16 01:33:22;;;;;;;27.85;26.65;;;;;;;-141.02;100.00;105215.78;5135133;27;20559;-56
2023/09/16 01:35:55;;;;;;;27.35;26.25;;;;;;;-141.02;100.00;106216.91;5135334;27;20184;-56
2023/09/16 01:38:24;;;;;;;27.75;26.55;;;;;;;-141.02;100.00;106717.56;5134986;27;20195;-56
2023/09/16 01:40:55;;;;;;;28.83;27.63;;;;;;;-141.02;100.00;107468.69;5134886;27;20684;-56
2023/09/16 01:43:22;;;;;;;30.42;29.13;;;;;;;-141.02;100.00;107719.09;5135179;27;20192;-56
2023/09/16 01:45:49;;;;;;;30.98;29.67;;;;;;;-141.02;100.00;107719.09;5134000;27;20238;-56
2023/09/16 01:48:16;;;;;;;32.88;31.48;;;;;;;-141.02;100.00;107969.53;5135100;27;20193;-56
2023/09/16 01:50:44;;;;;;;27.23;26.13;;;;;;;-141.02;100.00;107969.53;5134684;27;20196;-55
2023/09/16 01:53:11;;;;;;;24.10;23.10;;;;;;;-141.02;100.00;107969.53;5135186;27;20188;-55
2023/09/16 01:55:38;;;;;;;22.80;21.90;;;;;;;-141.02;100.00;107719.09;5134667;27;20727;-56
2023/09/16 01:58:08;;;;;;;22.90;22.00;;;;;;;-141.02;100.00;107468.69;5134824;27;20196;-56
2023/09/16 02:00:42;;;;;;;22.77;21.88;;;;;;;-141.02;100.00;107468.69;5135047;27;20193;-55
2023/09/16 02:03:10;;;;;;;23.05;22.15;;;;;;;-141.02;100.00;107218.31;5134882;27;20192;-55
2023/09/16 02:05:37;;;;;;;23.50;22.50;;;;;;;-141.02;100.00;106967.91;5134879;27;20232;-56
2023/09/16 02:08:06;;;;;;;25.40;24.30;;;;;;;-141.02;100.00;106967.91;5134682;27;20185;-55
2023/09/16 02:10:33;;;;;;;26.38;25.27;;;;;;;-141.02;100.00;106967.91;5134514;27;20572;-56
2023/09/16 02:13:07;;;;;;;24.70;23.70;;;;;;;-141.02;100.00;107218.31;5134236;27;20578;-56
2023/09/16 02:15:35;;;;;;;24.40;23.40;;;;;;;-141.02;100.00;107468.69;5134556;27;20192;-55
2023/09/16 02:18:02;;;;;;;22.27;21.38;;;;;;;-141.02;100.00;107468.69;5134721;27;20194;-55
2023/09/16 02:20:29;;;;;;;23.38;22.48;;;;;;;-141.02;100.00;107719.09;5134370;27;20283;-56
2023/09/16 02:22:56;;;;;;;23.95;23.05;;;;;;;-141.02;100.00;107969.53;5134098;27;20650;-55
2023/09/16 02:25:23;;;;;;;24.88;23.90;;;;;;;-141.02;100.00;107969.53;5133920;27;20715;-55
2023/09/16 02:27:50;;;;;;;25.23;24.23;;;;;;;-141.02;100.00;107969.53;5133918;27;20200;-55
2023/09/16 02:30:18;;;;;;;22.70;21.90;;;;;;;-141.02;100.00;107969.53;5133913;27;20192;-56
2023/09/16 02:32:45;;;;;;;23.77;22.88;;;;;;;-141.02;100.00;107971.50;5133794;27;20708;-55
2023/09/16 02:35:12;;;;;;;23.20;22.33;;;;;;;-141.02;100.00;107971.50;5134196;27;20192;-67
2023/09/16 02:37:39;;;;;;;20.27;19.58;;;;;;;-141.02;100.00;107971.50;5134025;27;20617;-60
2023/09/16 02:40:08;;;;;;;22.65;21.85;;;;;;;-141.02;100.00;107971.50;5133731;27;20276;-56
2023/09/16 02:42:35;;;;;;;20.35;19.65;;;;;;;-141.02;100.00;107971.50;5133971;27;20197;-67
2023/09/16 02:45:02;;;;;;;19.55;18.85;;;;;;;-141.02;100.00;107971.50;5133956;27;20644;-56
2023/09/16 02:47:32;;;;;;;18.70;18.10;;;;;;;-141.02;100.00;107971.50;5133831;27;20228;-55
2023/09/16 02:50:20;;;;;;;19.33;18.73;;;;;;;-141.02;100.00;107971.50;5134182;27;20188;-56
2023/09/16 02:52:47;;;;;;;18.95;18.35;;;;;;;-141.02;100.00;107971.50;5133754;27;20206;-55
2023/09/16 02:55:16;;;;;;;18.75;18.15;;;;;;;-141.02;100.00;107971.50;5133543;27;20648;-56
2023/09/16 02:57:43;;;;;;;17.33;16.83;;;;;;;-141.02;100.00;107971.50;5133623;27;20196;-55
2023/09/16 03:00:10;;;;;;;14.95;14.55;;;;;;;-141.02;100.00;107971.50;5133374;27;20197;-55
2023/09/16 03:02:39;;;;;;;15.05;14.65;;;;;;;-141.02;100.00;107971.50;5133641;27;20195;-55
2023/09/16 03:05:06;;;;;;;14.63;14.23;;;;;;;-141.02;100.00;107971.50;5133402;27;20196;-56
2023/09/16 03:07:34;;;;;;;14.43;14.02;;;;;;;-141.02;100.00;107971.50;5133550;27;20216;-56
2023/09/16 03:12:46;;;;;;;13.05;12.65;;;;;;;-141.02;100.00;107971.50;5129531;27;20200;-56
2023/09/16 03:15:28;;;;;;;12.40;12.10;;;;;;;-141.02;100.00;107971.50;5133175;27;20192;-56
2023/09/16 03:17:56;;;;;;;12.70;12.32;;;;;;;-141.02;100.00;107971.50;5133491;27;20577;-55
2023/09/16 03:20:32;;;;;;;11.98;11.68;;;;;;;-141.02;100.00;107971.50;5133076;27;20192;-55
2023/09/16 03:23:28;;;;;;;11.52;11.23;;;;;;;-141.02;100.00;107971.50;5133113;27;20184;-55
2023/09/16 03:26:15;;;;;;;10.85;10.55;;;;;;;-141.02;100.00;107971.50;5132984;27;20216;-55
2023/09/16 03:29:04;;;;;;;10.68;10.38;;;;;;;-141.02;100.00;107971.50;5133278;27;20237;-55
2023/09/16 03:31:31;;;;;;;8.90;8.70;;;;;;;-141.02;100.00;107971.50;5132935;27;20203;-57
2023/09/16 03:33:59;;;;;;;8.20;8.00;;;;;;;-141.02;100.00;107971.50;5133262;27;20302;-55
2023/09/16 03:36:27;;;;;;;7.53;7.32;;;;;;;-141.02;100.00;107971.50;5132896;27;20746;-56
2023/09/16 03:38:54;;;;;;;8.35;8.15;;;;;;;-141.02;100.00;107971.50;5132870;27;20283;-56
2023/09/16 03:41:21;;;;;;;7.90;7.70;;;;;;;-141.02;100.00;107971.50;5133222;27;20224;-56
2023/09/16 03:43:48;;;;;;;14.70;14.30;;;;;;;-141.02;100.00;107971.50;5133353;27;20199;-59
2023/09/16 03:46:15;;;;;;;20.08;19.27;;;;;;;-141.02;100.00;107971.50;5133063;27;20227;-60
2023/09/16 03:48:42;;;;;;;21.90;21.02;;;;;;;-141.02;100.00;107971.50;5132755;27;20202;-59
2023/09/16 03:51:11;;;;;;;23.23;22.33;;;;;;;-141.02;100.00;107971.50;5133097;27;20192;-58
2023/09/16 03:53:38;;;;;;;22.92;22.02;;;;;;;-141.02;100.00;107971.50;5132976;27;20754;-58
2023/09/16 03:56:09;;;;;;;23.70;22.80;;;;;;;-141.02;100.00;107971.50;5133019;27;20242;-58
2023/09/16 03:58:36;;;;;;;23.88;22.98;;;;;;;-141.02;100.00;107971.50;5133086;27;20239;-58
2023/09/16 04:01:04;;;;;;;25.00;24.00;;;;;;;-141.02;100.00;107971.50;5132642;27;20192;-58
2023/09/16 04:03:31;;;;;;;24.88;23.88;;;;;;;-141.02;100.00;107971.50;5132646;27;20726;-58
2023/09/16 04:05:58;;;;;;;23.33;22.42;;;;;;;-141.02;100.00;107971.50;5132488;27;20232;-57
2023/09/16 04:08:27;;;;;;;22.20;21.40;;;;;;;-141.02;100.00;107971.50;5133033;27;20245;-58
2023/09/16 04:10:54;;;;;;;21.55;20.75;;;;;;;-141.02;100.00;107971.50;5136620;27;20195;-69
2023/09/16 04:13:22;;;;;;;23.70;22.80;;;;;;;-141.02;100.00;107971.50;5136572;27;20197;-58
2023/09/16 04:15:49;;;;;;;28.80;27.60;;;;;;;-141.02;100.00;107971.50;5136849;27;20195;-59
2023/09/16 04:18:16;;;;;;;33.45;31.95;;;;;;;-141.02;100.00;107971.50;5136486;27;20189;-63
2023/09/16 04:20:45;;;;;;;41.83;39.90;;;;;;;-141.02;100.00;107971.50;5136449;27;20573;-62
2023/09/16 04:23:12;;;;;;;44.60;42.50;;;;;;;-141.02;100.00;107971.50;5136402;27;20195;-62
2023/09/16 04:25:41;;;;;;;40.20;38.35;;;;;;;-141.02;100.00;107971.50;5136449;27;20278;-62
2023/09/16 04:28:08;;;;;;;38.75;36.95;;;;;;;-141.02;100.00;107971.50;5136659;27;20230;-63
2023/09/16 04:30:39;;;;;;;31.88;30.45;;;;;;;-141.02;100.00;107971.50;5136234;27;20291;-63
2023/09/16 04:33:09;;;;;;;33.65;32.03;;;;;;;-141.02;100.00;107971.50;5136585;27;20192;-63
2023/09/16 04:35:43;;;;;;;34.05;32.35;;;;;;;-141.02;100.00;107971.50;5136413;27;20188;-64
2023/09/16 04:38:11;;;;;;;32.88;31.27;;;;;;;-141.02;100.00;107971.50;5136495;27;20184;-64
2023/09/16 04:40:38;;;;;;;32.40;30.83;;;;;;;-141.02;100.00;107971.50;5136314;27;20201;-63
2023/09/16 04:43:07;;;;;;;34.13;32.53;;;;;;;-141.02;100.00;107971.50;5136337;27;20224;-63
2023/09/16 04:45:34;;;;;;;32.22;30.77;;;;;;;-141.02;100.00;107971.50;5136198;27;20204;-64
2023/09/16 04:48:01;;;;;;;34.47;32.90;;;;;;;-141.02;100.00;107971.50;5136091;27;20232;-64
2023/09/16 04:50:29;;;;;;;37.95;36.25;;;;;;;-141.02;100.00;107971.50;5135931;27;20669;-63
2023/09/16 04:52:58;;;;;;;36.40;34.75;;;;;;;-141.02;100.00;107971.50;5136131;27;20188;-63
2023/09/16 04:55:25;;;;;;;38.58;36.85;;;;;;;-141.02;100.00;107971.50;5135772;27;20196;-63
2023/09/16 04:57:52;;;;;;;42.03;40.13;;;;;;;-141.02;100.00;107971.50;5135675;27;20196;-63
2023/09/16 05:00:21;;;;;;;48.42;46.22;;;;;;;-141.02;100.00;107971.50;5135920;27;20196;-63
2023/09/16 05:02:50;;;;;;;46.50;44.40;;;;;;;-141.02;100.00;107971.50;5135668;27;20666;-64
2023/09/16 05:05:17;;;;;;;50.38;48.08;;;;;;;-141.02;100.00;107971.50;5135694;27;20225;-64
2023/09/16 05:07:44;;;;;;;54.22;51.78;;;;;;;-141.02;100.00;107971.50;5135565;27;20255;-65
2023/09/16 05:10:12;;;;;;;59.95;57.25;;;;;;;-141.02;100.00;107971.50;5135449;27;20688;-66
2023/09/16 05:12:39;;;;;;;66.45;63.45;;;;;;;-141.02;100.00;107971.50;5135816;27;20196;-66
2023/09/16 05:15:08;;;;;;;65.32;62.38;;;;;;;-141.02;100.00;107971.50;5135608;27;20569;-65
2023/09/16 05:17:36;;;;;;;67.97;64.93;;;;;;;-141.02;100.00;107971.50;5135414;27;20192;-65
2023/09/16 05:20:04;;;;;;;71.95;68.78;;;;;;;-141.02;100.00;107971.50;5134453;27;20697;-65
2023/09/16 05:22:31;;;;;;;68.10;65.03;;;;;;;-141.02;100.00;107971.50;5135107;27;20678;-65
2023/09/16 05:24:58;;;;;;;66.75;63.78;;;;;;;-141.02;100.00;107971.50;5135775;27;20196;-65
2023/09/16 05:27:25;;;;;;;75.07;71.78;;;;;;;-141.02;100.00;107971.50;5135341;27;20224;-65
2023/09/16 05:29:56;;;;;;;93.68;89.60;;;;;;;-141.02;100.00;107971.50;5135159;27;20291;-65
2023/09/16 05:32:23;;;;;;;92.65;88.65;;;;;;;-141.02;100.00;107971.50;5135055;27;20201;-66
2023/09/16 05:34:51;;;;;;;107.72;103.13;;;;;;;-141.02;100.00;107971.50;5135571;27;20198;-65
2023/09/16 05:37:18;;;;;;;123.90;118.65;;;;;;;-141.02;100.00;107971.50;5135326;27;20207;-65
2023/09/16 05:39:45;;;;;;;132.02;126.45;;;;;;;-141.02;100.00;107971.50;5135232;27;20188;-66
2023/09/16 05:42:12;;;;;;;132.13;126.53;;;;;;;-141.02;100.00;107971.50;5134888;27;20291;-66
2023/09/16 05:44:39;;;;;;;140.88;134.90;;;;;;;-141.02;100.00;107971.50;5135671;27;20192;-67
2023/09/16 05:47:06;;;;;;;127.65;122.20;;;;;;;-141.02;100.00;107971.50;5134717;27;20228;-67
2023/09/16 05:49:33;;;;;;;130.30;124.70;;;;;;;-141.02;100.00;107971.50;5135237;27;20198;-66
2023/09/16 05:52:01;;;;;;;122.88;117.57;;;;;;;-141.02;100.00;107971.50;5134714;27;20659;-66
2023/09/16 05:54:29;;;;;;;128.00;122.53;;;;;;;-141.02;100.00;107971.50;5134661;27;20279;-65
2023/09/16 05:56:55;;;;;;;120.28;115.10;;;;;;;-141.02;100.00;107971.50;5134543;27;20286;-66
2023/09/16 05:59:22;;;;;;;132.90;127.20;;;;;;;-141.02;100.00;107971.50;5134538;27;20197;-66
2023/09/16 06:01:49;;;;;;;145.85;139.63;;;;;;;-141.02;100.00;107971.50;5134475;27;20188;-65
2023/09/16 06:04:16;;;;;;;137.95;132.07;;;;;;;-141.02;100.00;107971.50;5134426;27;20192;-65
2023/09/16 06:06:43;;;;;;;147.90;141.60;;;;;;;-141.02;100.00;107971.50;5134223;27;20336;-65
2023/09/16 06:09:12;;;;;;;154.82;148.23;;;;;;;-141.02;100.00;107971.50;5134617;27;20197;-65
2023/09/16 06:11:39;;;;;;;166.05;158.98;;;;;;;-141.02;100.00;107971.50;5134323;27;20203;-64
2023/09/16 06:14:05;;;;;;;171.77;164.48;;;;;;;-141.02;100.00;107971.50;5134513;27;20199;-64
2023/09/16 06:16:33;;;;;;;145.60;139.45;;;;;;;-141.02;100.00;107971.50;5134447;27;20280;-63
2023/09/16 06:19:00;;;;;;;151.10;144.70;;;;;;;-141.02;100.00;107971.50;5134028;27;20196;-63
2023/09/16 06:21:26;;;;;;;159.73;152.98;;;;;;;-141.02;100.00;107971.50;5134019;27;20684;-62
2023/09/16 06:23:53;;;;;;;158.45;151.75;;;;;;;-141.02;100.00;107971.50;5134369;27;20218;-62
2023/09/16 06:26:22;;;;;;;166.95;159.90;;;;;;;-141.02;100.00;107971.50;5133841;27;20283;-62
2023/09/16 06:28:48;;;;;;;149.32;143.02;;;;;;;-141.02;100.00;107971.50;5133946;27;20203;-62
2023/09/16 06:31:15;;;;;;;137.35;131.57;;;;;;;-141.02;100.00;107971.50;5133927;27;20189;-62
2023/09/16 06:33:42;;;;;;;121.18;116.07;;;;;;;-141.02;100.00;107971.50;5133720;27;20667;-63
2023/09/16 06:36:09;;;;;;;116.22;111.32;;;;;;;-141.02;100.00;107971.50;5133867;27;20651;-62
2023/09/16 06:38:36;;;;;;;114.30;109.50;;;;;;;-141.02;100.00;107971.50;5133994;27;20192;-62
2023/09/16 06:41:03;;;;;;;105.18;100.72;;;;;;;-141.02;100.00;107971.50;5134021;27;20200;-62
2023/09/16 06:43:32;;;;;;;107.35;102.82;;;;;;;-141.02;100.00;107971.50;5134004;27;20266;-62
2023/09/16 06:45:58;;;;;;;87.75;84.03;;;;;;;-141.02;100.00;107971.50;5133760;27;20679;-62
2023/09/16 06:48:25;;;;;;;78.13;74.78;;;;;;;-141.02;100.00;107971.50;5133535;27;20228;-61
2023/09/16 06:50:52;;;;;;;67.35;64.43;;;;;;;-141.02;100.00;107971.50;5133479;27;20196;-62
2023/09/16 06:53:19;;;;;;;44.22;42.40;;;;;;;-141.02;100.00;107971.50;5133744;27;20578;-61
2023/09/16 06:55:47;;;;;;;34.42;33.05;;;;;;;-141.02;100.00;107971.50;5133772;27;20199;-61
2023/09/16 06:58:14;;;;;;;32.80;31.50;;;;;;;-141.02;100.00;107971.50;5133740;27;20564;-61
2023/09/16 07:00:42;;;;;;;27.35;26.35;;;;;;;-141.02;100.00;107971.50;5133692;27;20241;-61
2023/09/16 07:03:09;;;;;;;24.48;23.58;;;;;;;-141.02;100.00;107971.50;5133715;27;20192;-61
2023/09/16 07:05:36;;;;;;;22.30;21.50;;;;;;;-141.02;100.00;107971.50;5133217;27;20228;-61
2023/09/16 07:08:04;;;;;;;20.35;19.65;;;;;;;-141.02;100.00;107971.50;5133577;27;20218;-60
2023/09/16 07:10:31;;;;;;;16.98;16.48;;;;;;;-141.02;100.00;107971.50;5133491;27;20205;-60
2023/09/16 07:12:58;;;;;;;14.13;13.73;;;;;;;-141.02;100.00;107971.50;5133550;27;20203;-60
2023/09/16 07:15:25;;;;;;;11.98;11.68;;;;;;;-141.02;100.00;107971.50;5133725;27;20196;-59
2023/09/16 07:17:53;;;;;;;11.60;11.30;;;;;;;-141.02;100.00;107971.50;5133502;27;20192;-60
2023/09/16 07:20:20;;;;;;;10.93;10.63;;;;;;;-141.02;100.00;107971.50;5133354;27;20196;-60
2023/09/16 07:22:47;;;;;;;9.25;9.05;;;;;;;-141.02;100.00;107971.50;5133392;27;20192;-60
2023/09/16 07:25:14;;;;;;;9.15;8.95;;;;;;;-141.02;100.00;107971.50;5132963;27;20199;-60
2023/09/16 07:27:41;;;;;;;10.40;10.10;;;;;;;-141.02;100.00;107971.50;5132936;27;20220;-60
2023/09/16 07:30:08;;;;;;;11.20;10.90;;;;;;;-141.02;100.00;107971.50;5133253;27;20271;-60
2023/09/16 07:32:36;;;;;;;13.20;12.80;;;;;;;-141.02;100.00;107971.50;5133236;27;20573;-60
2023/09/16 07:35:05;;;;;;;13.25;12.85;;;;;;;-141.02;100.00;107971.50;5133199;27;20196;-59
2023/09/16 07:37:32;;;;;;;13.52;13.13;;;;;;;-141.02;100.00;107971.50;5133395;27;20382;-59
2023/09/16 07:39:59;;;;;;;15.00;14.50;;;;;;;-141.02;100.00;107971.50;5132885;27;20577;-59
2023/09/16 07:42:26;;;;;;;15.43;14.93;;;;;;;-141.02;100.00;107971.50;5133191;27;20249;-60
2023/09/16 07:44:53;;;;;;;17.73;17.02;;;;;;;-141.02;100.00;107971.50;5135479;27;20198;-60
2023/09/16 07:47:20;;;;;;;18.40;17.70;;;;;;;-141.02;100.00;107971.50;5137133;27;20224;-59
2023/09/16 07:49:47;;;;;;;19.20;18.42;;;;;;;-141.02;100.00;107971.50;5137020;27;20723;-59
2023/09/16 07:52:15;;;;;;;19.25;18.45;;;;;;;-141.02;100.00;107971.50;5137364;27;20188;-59
2023/09/16 07:54:43;;;;;;;20.60;19.77;;;;;;;-141.02;100.00;107971.50;5136939;27;20202;-59
2023/09/16 07:57:10;;;;;;;20.40;19.60;;;;;;;-141.02;100.00;107971.50;5137003;27;20204;-58
2023/09/16 07:59:37;;;;;;;19.75;18.95;;;;;;;-141.02;100.00;107971.50;5136880;27;20197;-59
2023/09/16 08:02:04;;;;;;;20.60;19.80;;;;;;;-141.02;100.00;107971.50;5137096;27;20203;-58
2023/09/16 08:04:31;;;;;;;18.25;17.55;;;;;;;-141.02;100.00;107971.50;5137380;27;20192;-58
2023/09/16 08:06:58;;;;;;;21.10;20.20;;;;;;;-141.02;100.00;107971.50;5136773;27;20231;-58
2023/09/16 08:09:27;;;;;;;19.85;19.05;;;;;;;-141.02;100.00;107971.50;5137019;27;20192;-58
2023/09/16 08:11:54;;;;;;;20.90;20.02;;;;;;;-141.02;100.00;107971.50;5136647;27;20206;-58
2023/09/16 08:14:21;;;;;;;20.60;19.70;;;;;;;-141.02;100.00;107971.50;5136566;27;20566;-58
2023/09/16 08:16:48;;;;;;;21.05;20.15;;;;;;;-141.02;100.00;107971.50;5136858;27;20192;-58
2023/09/16 08:19:16;;;;;;;22.27;21.27;;;;;;;-141.02;100.00;107971.50;5136752;27;20210;-58
2023/09/16 08:21:43;;;;;;;20.92;20.02;;;;;;;-141.02;100.00;107971.50;5136810;27;20201;-58
2023/09/16 08:24:10;;;;;;;20.60;19.70;;;;;;;-141.02;100.00;107971.50;5136690;27;20198;-58
2023/09/16 08:26:38;;;;;;;19.23;18.42;;;;;;;-141.02;100.00;107971.50;5136863;27;20196;-58
2023/09/16 08:29:05;;;;;;;22.10;21.00;;;;;;;-141.02;100.00;106967.91;5136239;27;20573;-58
2023/09/16 08:31:32;;;;;;;19.50;18.70;;;;;;;-141.02;100.00;106216.91;5136238;27;20192;-58
2023/09/16 08:34:02;;;;;;;19.05;18.25;;;;;;;-141.02;100.00;106216.91;5136261;27;20196;-58
2023/09/16 08:36:29;;;;;;;19.40;18.60;;;;;;;-141.02;100.00;105466.03;5136522;27;20196;-58
2023/09/16 08:38:56;;;;;;;18.67;17.88;;;;;;;-141.02;100.00;104214.97;5136181;27;20201;-58
2023/09/16 08:41:29;;;;;;;18.02;17.23;;;;;;;-141.02;100.00;104214.97;5136346;27;20207;-58
2023/09/16 08:44:00;;;;;;;18.27;17.48;;;;;;;-141.02;100.00;104214.97;5136354;27;20185;-58
2023/09/16 08:46:30;;;;;;;19.35;18.45;;;;;;;-141.02;100.00;103964.81;5136566;27;20195;-58
2023/09/16 08:49:00;;;;;;;18.48;17.67;;;;;;;-141.02;100.00;104214.97;5136221;27;20223;-58
2023/09/16 08:51:30;;;;;;;18.63;17.92;;;;;;;-141.02;100.00;103964.81;5136329;27;20188;-58
2023/09/16 08:54:00;;;;;;;20.48;19.55;;;;;;;-141.02;100.00;102964.34;5136150;27;20192;-59
2023/09/16 08:56:28;;;;;;;19.75;18.85;;;;;;;-141.02;100.00;103714.66;5135625;27;20580;-59
2023/09/16 08:58:57;;;;;;;19.27;18.38;;;;;;;-141.02;100.00;102464.22;5136272;27;20192;-58
2023/09/16 09:01:24;;;;;;;18.88;17.98;;;;;;;-141.02;100.00;102214.16;5135749;27;20207;-58
2023/09/16 09:03:51;;;;;;;19.10;18.20;;;;;;;-141.02;100.00;101714.16;5135982;27;20212;-59
2023/09/16 09:06:21;;;;;;;18.77;17.98;;;;;;;-141.02;100.00;100464.44;5135470;27;20263;-59
2023/09/16 09:08:48;;;;;;;18.08;17.38;;;;;;;-141.02;100.00;100964.25;5135740;27;20697;-59
2023/09/16 09:11:16;;;;;;;15.38;14.88;;;;;;;-141.02;100.00;101714.16;5135836;27;20573;-59
2023/09/16 09:13:45;;;;;;;15.23;14.63;;;;;;;-141.02;100.00;99714.81;5135783;27;20196;-59
2023/09/16 09:16:17;;;;;;;14.43;13.82;;;;;;;-141.02;100.00;98965.34;5135943;27;20193;-75
2023/09/16 09:18:47;;;;;;;15.05;14.43;;;;;;;-141.02;100.00;97217.22;5136019;27;20273;-59
2023/09/16 09:21:16;;;;;;;15.93;15.13;;;;;;;-141.02;100.00;97966.31;5135697;27;20201;-59
2023/09/16 09:23:42;;;;;;;16.40;15.80;;;;;;;-141.02;100.00;95719.53;5135286;27;20207;-60
2023/09/16 09:26:11;;;;;;;16.33;15.63;;;;;;;-141.02;100.00;93723.63;5135771;27;20225;-59
2023/09/16 09:28:38;;;;;;;16.73;15.73;;;;;;;-141.02;100.00;90981.13;5135424;27;20617;-59
2023/09/16 09:31:05;;;;;;;16.92;15.82;;;;;;;-141.02;100.00;90482.72;5135171;27;20654;-58
2023/09/16 09:33:40;;;;;;;16.00;15.20;;;;;;;-141.02;100.00;90981.13;5135392;27;20192;-62
2023/09/16 09:36:11;;;;;;;15.68;14.98;;;;;;;-141.02;100.00;90981.13;5135291;27;20238;-59
2023/09/16 09:38:42;;;;;;;15.68;14.88;;;;;;;-141.02;100.00;90981.13;5135264;27;20197;-59
2023/09/16 09:41:09;;;;;;;16.67;15.68;;;;;;;-141.02;100.00;89486.16;5135280;27;20203;-59
2023/09/16 09:43:36;;;;;;;15.90;15.00;;;;;;;-141.02;100.00;92476.78;5134851;27;20195;-59
2023/09/16 09:46:03;;;;;;;17.42;16.33;;;;;;;-141.02;100.00;90233.56;5135210;27;20196;-59
2023/09/16 09:48:31;;;;;;;16.73;15.73;;;;;;;-141.02;100.00;89237.03;5134729;27;20266;-59
2023/09/16 09:51:00;;;;;;;16.73;15.73;;;;;;;-141.02;100.00;89486.16;5135093;27;20192;-59
2023/09/16 09:53:28;;;;;;;16.95;15.95;;;;;;;-141.02;100.00;90482.72;5135245;27;20192;-59
2023/09/16 09:55:55;;;;;;;16.80;15.80;;;;;;;-141.02;100.00;88489.84;5134915;27;20189;-59
2023/09/16 09:58:24;;;;;;;16.70;15.70;;;;;;;-141.02;100.00;87991.81;5134587;27;20193;-59
2023/09/16 10:00:52;;;;;;;15.60;14.80;;;;;;;-141.02;100.00;88240.81;5134883;27;20203;-59
2023/09/16 10:03:22;;;;;;;16.52;15.52;;;;;;;-141.02;100.00;87244.88;5134537;27;20198;-59
2023/09/16 10:05:49;;;;;;;16.25;15.25;;;;;;;-141.02;100.00;86498.09;5134210;27;20714;-69
2023/09/16 10:08:18;;;;;;;16.65;15.65;;;;;;;-141.02;100.00;85751.50;5133703;27;20228;-59
2023/09/16 10:10:47;;;;;;;15.13;14.32;;;;;;;-141.02;100.00;86995.94;5134933;27;20199;-61
2023/09/16 10:13:15;;;;;;;15.35;14.55;;;;;;;-141.02;100.00;86995.94;5134261;27;20697;-60
2023/09/16 10:15:42;;;;;;;15.98;15.07;;;;;;;-141.02;100.00;85751.50;5134592;27;20201;-59
2023/09/16 10:18:09;;;;;;;15.05;14.35;;;;;;;-141.02;100.00;88489.84;5134389;27;20649;-59
2023/09/16 10:20:39;;;;;;;16.67;15.68;;;;;;;-141.02;100.00;87244.88;5134170;27;20729;-60
2023/09/16 10:23:06;;;;;;;17.40;16.25;;;;;;;-141.02;100.00;86995.94;5134068;27;20249;-59
2023/09/16 10:25:36;;;;;;;17.50;16.30;;;;;;;-141.02;100.00;83512.63;5134356;27;20275;-59
2023/09/16 10:28:05;;;;;;;17.58;16.38;;;;;;;-141.02;100.00;83512.63;5134215;27;20220;-59
2023/09/16 10:30:33;;;;;;;18.00;16.80;;;;;;;-141.02;100.00;82269.47;5134540;27;20201;-60
2023/09/16 10:33:01;;;;;;;17.88;16.67;;;;;;;-141.02;100.00;83263.97;5134255;27;20214;-59
2023/09/16 10:35:28;;;;;;;17.85;16.65;;;;;;;-141.02;100.00;84010.03;5134405;27;20482;-60
2023/09/16 10:37:57;;;;;;;17.60;16.50;;;;;;;-141.02;100.00;82766.69;5134335;27;20198;-60
2023/09/16 10:40:24;;;;;;;18.05;16.85;;;;;;;-141.02;100.00;80778.25;5134076;27;20279;-60
2023/09/16 10:42:53;;;;;;;17.98;16.77;;;;;;;-141.02;100.00;80778.25;5134340;27;20188;-60
2023/09/16 10:45:21;;;;;;;18.08;16.88;;;;;;;-141.02;100.00;82269.47;5134225;27;20200;-60
2023/09/16 10:47:50;;;;;;;17.35;16.25;;;;;;;-141.02;100.00;79536.03;5133539;27;20203;-60
2023/09/16 10:50:18;;;;;;;18.10;16.90;;;;;;;-141.02;100.00;78542.63;5133624;27;20192;-60
2023/09/16 10:52:49;;;;;;;17.63;16.42;;;;;;;-141.02;100.00;78542.63;5133806;27;20204;-61
2023/09/16 10:55:24;;;;;;;18.05;16.80;;;;;;;-141.02;100.00;78046.00;5133968;27;20181;-60